Time;durP1;ratioP1;P1;durP2;ratioP2;P2;SDS_P1;SDS_P2;PMS_P1;PMS_P2;Temp;Humidity;BMP_temperature;BMP_pressure;BME280_temperature;BME280_humidity;BME280_pressure;Samples;Min_cycle;Max_cycle;Signal;HPM_P1;HPM_P2
2021/10/08 00:00:34;;;;;;;7.65;5.68;;;;;;;8.40;nan;102449.44;4957846;28;20054;-83
2021/10/08 00:03:01;;;;;;;9.25;6.28;;;;;;;8.38;nan;102452.06;4954603;28;20054;-82
2021/10/08 00:05:27;;;;;;;8.30;5.75;;;;;;;8.44;nan;102436.38;4946743;28;20057;-82
2021/10/08 00:07:54;;;;;;;8.07;5.43;;;;;;;8.45;nan;102446.03;4950801;28;20141;-83
2021/10/08 00:10:21;;;;;;;8.27;6.00;;;;;;;8.45;nan;102437.25;4945331;28;20051;-82
2021/10/08 00:12:48;;;;;;;8.73;5.95;;;;;;;8.49;nan;102446.09;4943534;28;20068;-81
2021/10/08 00:15:14;;;;;;;12.10;5.32;;;;;;;8.52;nan;102446.16;4959205;28;20054;-82
2021/10/08 00:17:41;;;;;;;9.05;6.20;;;;;;;8.51;nan;102445.28;4952566;28;20158;-81
2021/10/08 00:20:09;;;;;;;7.05;5.30;;;;;;;8.51;nan;102447.03;4943072;28;20500;-81
2021/10/08 00:22:35;;;;;;;6.78;5.32;;;;;;;8.53;nan;102453.19;4950840;28;20042;-81
2021/10/08 00:25:03;;;;;;;6.80;5.28;;;;;;;8.57;nan;102448.00;4977249;28;20065;-86
2021/10/08 00:27:31;;;;;;;6.88;5.35;;;;;;;8.54;nan;102449.69;4952786;28;20511;-81
2021/10/08 00:29:58;;;;;;;6.57;5.00;;;;;;;8.56;nan;102445.34;4967436;28;20046;-81
2021/10/08 00:32:24;;;;;;;10.57;6.43;;;;;;;8.62;nan;102443.69;4965186;28;20053;-81
2021/10/08 00:34:51;;;;;;;8.77;6.03;;;;;;;8.62;nan;102450.72;4962104;28;20042;-81
2021/10/08 00:37:18;;;;;;;11.27;6.70;;;;;;;8.63;nan;102450.72;4976347;28;20049;-81
2021/10/08 00:39:44;;;;;;;10.68;6.55;;;;;;;8.63;nan;102457.75;4974347;28;20297;-81
2021/10/08 00:42:11;;;;;;;9.75;6.63;;;;;;;8.66;nan;102457.78;4940589;28;20132;-81
2021/10/08 00:44:38;;;;;;;9.88;6.63;;;;;;;8.66;nan;102447.25;4951619;28;20499;-81
2021/10/08 00:47:13;;;;;;;9.93;7.00;;;;;;;8.71;nan;102453.50;4951944;28;20046;-86
2021/10/08 00:49:39;;;;;;;11.57;7.18;;;;;;;8.69;nan;102457.84;4976601;28;20034;-83
2021/10/08 00:52:06;;;;;;;8.75;7.05;;;;;;;8.72;nan;102455.25;4957125;28;20057;-82
2021/10/08 00:54:33;;;;;;;11.80;7.60;;;;;;;8.77;nan;102464.13;4991887;28;20046;-84
2021/10/08 00:57:00;;;;;;;11.15;7.45;;;;;;;8.78;nan;102462.38;4954738;28;20042;-83
2021/10/08 00:59:28;;;;;;;11.10;8.00;;;;;;;8.80;nan;102460.66;4966083;28;20046;-83
2021/10/08 01:01:55;;;;;;;11.75;7.15;;;;;;;8.80;nan;102464.16;4957760;28;20104;-82
2021/10/08 01:04:23;;;;;;;11.63;7.18;;;;;;;8.83;nan;102458.97;4984363;28;20076;-81
2021/10/08 01:06:51;;;;;;;11.90;8.45;;;;;;;8.85;nan;102457.22;4957942;28;20064;-83
2021/10/08 01:09:20;;;;;;;19.73;11.25;;;;;;;8.93;nan;102458.25;4958209;28;20503;-83
2021/10/08 01:11:49;;;;;;;11.35;8.02;;;;;;;9.02;nan;102457.50;4963504;28;20034;-81
2021/10/08 01:14:18;;;;;;;20.40;12.27;;;;;;;9.25;nan;102452.53;4942947;28;20126;-81
2021/10/08 01:16:45;;;;;;;14.60;9.85;;;;;;;9.12;nan;102456.75;4965449;28;20100;-81
2021/10/08 01:19:12;;;;;;;17.05;10.18;;;;;;;9.14;nan;102459.41;4973707;28;20506;-85
2021/10/08 01:21:39;;;;;;;18.00;10.15;;;;;;;9.15;nan;102450.63;4963049;28;20040;-83
2021/10/08 01:24:05;;;;;;;15.05;8.55;;;;;;;9.13;nan;102452.34;4954188;28;20508;-82
2021/10/08 01:26:32;;;;;;;16.13;11.15;;;;;;;9.13;nan;102453.25;4967986;28;20046;-85
2021/10/08 01:28:59;;;;;;;19.10;12.13;;;;;;;9.25;nan;102450.78;4956418;28;20045;-84
2021/10/08 01:31:26;;;;;;;21.27;12.52;;;;;;;9.37;nan;102460.59;4961106;28;20050;-82
2021/10/08 01:33:52;;;;;;;18.33;11.82;;;;;;;9.48;nan;102460.75;4958591;28;20084;-85
2021/10/08 01:36:19;;;;;;;19.67;12.65;;;;;;;9.41;nan;102456.25;4960465;28;20038;-82
2021/10/08 01:38:46;;;;;;;17.90;11.52;;;;;;;9.38;nan;102448.31;4957467;28;20048;-83
2021/10/08 01:41:13;;;;;;;20.85;13.25;;;;;;;9.53;nan;102457.31;4958729;28;20560;-84
2021/10/08 01:43:39;;;;;;;18.92;12.32;;;;;;;9.49;nan;102447.56;4953365;28;20043;-83
2021/10/08 01:46:06;;;;;;;19.42;12.98;;;;;;;9.50;nan;102456.34;4987110;28;20088;-83
2021/10/08 01:48:33;;;;;;;22.50;13.63;;;;;;;9.51;nan;102451.13;4947774;28;20499;-83
2021/10/08 01:51:00;;;;;;;23.58;15.05;;;;;;;9.57;nan;102448.53;4942069;28;20038;-83
2021/10/08 01:53:27;;;;;;;22.25;13.27;;;;;;;9.61;nan;102454.75;4942214;28;20717;-84
2021/10/08 01:55:53;;;;;;;21.35;12.60;;;;;;;9.61;nan;102445.97;4962146;28;20643;-83
2021/10/08 01:58:20;;;;;;;19.33;12.40;;;;;;;9.64;nan;102451.25;4972849;28;20051;-82
2021/10/08 02:00:47;;;;;;;21.13;13.57;;;;;;;9.69;nan;102439.91;4971978;28;20096;-85
2021/10/08 02:03:14;;;;;;;19.55;12.35;;;;;;;9.69;nan;102444.31;4969341;28;20057;-83
2021/10/08 02:05:40;;;;;;;21.25;12.85;;;;;;;9.65;nan;102447.75;4971162;28;20085;-83
2021/10/08 02:08:07;;;;;;;21.77;12.77;;;;;;;9.79;nan;102441.78;4956420;28;20125;-85
2021/10/08 02:10:34;;;;;;;18.38;13.27;;;;;;;9.76;nan;102438.22;4976567;28;20038;-83
2021/10/08 02:13:01;;;;;;;19.60;12.73;;;;;;;9.78;nan;102434.72;4954878;28;20069;-82
2021/10/08 02:15:38;;;;;;;18.45;13.32;;;;;;;9.71;nan;102437.28;4952347;28;20204;-84
2021/10/08 02:18:05;;;;;;;19.85;12.82;;;;;;;9.70;nan;102440.78;4952361;28;20046;-83
2021/10/08 02:20:32;;;;;;;19.90;12.07;;;;;;;9.71;nan;102432.00;4947198;28;20045;-83
2021/10/08 02:22:58;;;;;;;19.65;12.63;;;;;;;9.68;nan;102430.22;4953561;28;20089;-83
2021/10/08 02:25:25;;;;;;;18.30;12.88;;;;;;;9.66;nan;102436.31;4939640;28;20492;-82
2021/10/08 02:27:52;;;;;;;19.42;13.30;;;;;;;9.68;nan;102440.78;4925918;28;20046;-82
2021/10/08 02:30:19;;;;;;;18.10;11.98;;;;;;;9.73;nan;102436.41;4941910;28;20057;-83
2021/10/08 02:32:45;;;;;;;16.27;11.23;;;;;;;9.69;nan;102445.19;4940717;28;20055;-83
2021/10/08 02:35:12;;;;;;;16.92;11.43;;;;;;;9.70;nan;102441.69;4969241;28;20471;-83
2021/10/08 02:37:39;;;;;;;21.02;13.25;;;;;;;9.72;nan;102450.50;4975585;28;20070;-83
2021/10/08 02:40:06;;;;;;;19.17;12.27;;;;;;;9.78;nan;102444.41;4977514;28;20052;-83
2021/10/08 02:42:33;;;;;;;17.40;11.82;;;;;;;9.75;nan;102449.63;4959801;28;20050;-84
2021/10/08 02:45:00;;;;;;;19.10;12.35;;;;;;;9.77;nan;102455.84;4993408;28;20054;-83
2021/10/08 02:47:27;;;;;;;19.77;12.32;;;;;;;9.87;nan;102455.94;4981214;28;20045;-83
2021/10/08 02:49:53;;;;;;;19.05;12.75;;;;;;;9.81;nan;102460.25;4968483;28;20530;-84
2021/10/08 02:52:38;;;;;;;18.60;11.95;;;;;;;9.78;nan;102450.56;4968256;28;20174;-83
2021/10/08 02:55:06;;;;;;;19.25;12.77;;;;;;;9.76;nan;102454.94;4961295;28;20047;-83
2021/10/08 02:57:36;;;;;;;19.98;13.18;;;;;;;9.81;nan;102460.25;4930598;28;20046;-83
2021/10/08 03:00:05;;;;;;;18.58;12.10;;;;;;;9.79;nan;102468.16;4999487;28;20034;-84
2021/10/08 03:02:32;;;;;;;19.33;12.02;;;;;;;9.77;nan;102472.56;4973896;28;20553;-83
2021/10/08 03:04:58;;;;;;;21.20;13.82;;;;;;;9.83;nan;102469.06;4975044;28;20038;-84
2021/10/08 03:07:26;;;;;;;17.30;11.43;;;;;;;9.81;nan;102470.81;4966402;28;20100;-84
2021/10/08 03:09:52;;;;;;;21.60;13.55;;;;;;;9.87;nan;102474.44;4960008;28;20056;-84
2021/10/08 03:12:19;;;;;;;22.45;13.73;;;;;;;10.02;nan;102471.06;4975644;28;20096;-83
2021/10/08 03:14:47;;;;;;;26.20;13.80;;;;;;;9.95;nan;102484.19;4964756;28;20514;-83
2021/10/08 03:17:14;;;;;;;18.42;12.30;;;;;;;9.92;nan;102476.22;4974100;28;20134;-83
2021/10/08 03:19:41;;;;;;;20.27;13.63;;;;;;;9.94;nan;102479.78;4951493;28;20057;-83
2021/10/08 03:22:08;;;;;;;23.25;14.55;;;;;;;9.98;nan;102479.81;4961562;28;20546;-83
2021/10/08 03:24:35;;;;;;;20.98;13.27;;;;;;;10.05;nan;102476.38;4967833;28;20088;-83
2021/10/08 03:27:02;;;;;;;18.85;12.10;;;;;;;9.95;nan;102484.19;4977882;28;20050;-84
2021/10/08 03:29:29;;;;;;;18.92;12.50;;;;;;;9.89;nan;102485.00;4999114;28;20050;-83
2021/10/08 03:31:56;;;;;;;18.48;12.57;;;;;;;9.87;nan;102495.53;4952220;28;20077;-84
2021/10/08 03:34:22;;;;;;;21.85;13.70;;;;;;;9.90;nan;102501.72;4959477;28;20101;-84
2021/10/08 03:36:55;;;;;;;20.40;12.63;;;;;;;9.94;nan;102495.63;4959607;28;20375;-83
2021/10/08 03:39:24;;;;;;;20.98;13.02;;;;;;;10.11;nan;102501.97;4999926;28;20150;-84
2021/10/08 03:41:52;;;;;;;18.00;12.95;;;;;;;10.00;nan;102499.19;4968392;28;20042;-83
2021/10/08 03:44:19;;;;;;;21.83;13.82;;;;;;;10.13;nan;102506.41;5000163;28;20049;-83
2021/10/08 03:46:52;;;;;;;21.48;13.40;;;;;;;10.07;nan;102497.53;4980429;28;20070;-83
2021/10/08 03:49:19;;;;;;;20.33;13.45;;;;;;;10.02;nan;102502.75;4945360;28;20143;-84
2021/10/08 03:51:47;;;;;;;20.00;13.95;;;;;;;10.00;nan;102498.31;4949065;28;20061;-83
2021/10/08 03:54:18;;;;;;;20.50;13.80;;;;;;;10.00;nan;102488.63;4980554;28;20041;-84
2021/10/08 03:56:46;;;;;;;22.42;13.88;;;;;;;10.10;nan;102498.47;4981959;28;20100;-84
2021/10/08 03:59:13;;;;;;;21.23;13.20;;;;;;;9.97;nan;102512.38;4960981;28;20046;-84
2021/10/08 04:01:42;;;;;;;19.85;13.63;;;;;;;9.97;nan;102504.47;4981518;28;20061;-84
2021/10/08 04:04:09;;;;;;;19.02;12.23;;;;;;;9.94;nan;102507.06;4980270;28;20053;-83
2021/10/08 04:06:36;;;;;;;21.08;14.57;;;;;;;9.99;nan;102508.00;4968970;28;20493;-84
2021/10/08 04:09:05;;;;;;;19.45;11.88;;;;;;;10.00;nan;102506.22;4936701;28;20069;-83
2021/10/08 04:11:34;;;;;;;24.08;14.02;;;;;;;10.03;nan;102512.47;4961077;28;20421;-84
2021/10/08 04:14:01;;;;;;;21.35;13.93;;;;;;;10.00;nan;102512.41;4955131;28;20050;-84
2021/10/08 04:16:28;;;;;;;23.17;15.43;;;;;;;10.04;nan;102513.34;4964165;28;20104;-84
2021/10/08 04:18:55;;;;;;;21.75;13.35;;;;;;;10.00;nan;102512.41;4965382;28;20061;-83
2021/10/08 04:21:21;;;;;;;18.75;13.13;;;;;;;10.02;nan;102508.03;4949455;28;20462;-84
2021/10/08 04:23:48;;;;;;;21.42;13.20;;;;;;;10.04;nan;102514.22;4944535;28;20573;-84
2021/10/08 04:26:15;;;;;;;22.70;14.38;;;;;;;10.04;nan;102510.69;4945458;28;20666;-84
2021/10/08 04:28:42;;;;;;;22.42;14.20;;;;;;;10.08;nan;102512.50;4959565;28;20034;-83
2021/10/08 04:31:08;;;;;;;25.17;15.65;;;;;;;10.14;nan;102518.72;4963854;28;20745;-84
2021/10/08 04:33:35;;;;;;;21.65;15.20;;;;;;;10.14;nan;102516.09;4962540;28;20054;-83
2021/10/08 04:36:02;;;;;;;24.35;14.70;;;;;;;10.18;nan;102524.97;4945109;28;20575;-84
2021/10/08 04:38:30;;;;;;;22.92;14.20;;;;;;;10.14;nan;102517.84;4983405;28;20046;-84
2021/10/08 04:40:57;;;;;;;20.23;12.30;;;;;;;10.11;nan;102521.34;4982008;28;20060;-84
2021/10/08 04:43:24;;;;;;;23.02;13.07;;;;;;;10.14;nan;102517.84;4960838;28;20046;-83
2021/10/08 04:45:51;;;;;;;22.10;15.07;;;;;;;10.11;nan;102513.44;4970968;28;20133;-83
2021/10/08 04:48:17;;;;;;;22.25;14.95;;;;;;;10.16;nan;102521.38;4952845;28;20337;-83
2021/10/08 04:50:44;;;;;;;20.90;13.18;;;;;;;10.13;nan;102518.72;4975359;28;20057;-83
2021/10/08 04:53:16;;;;;;;21.27;13.82;;;;;;;10.16;nan;102527.56;4941596;28;20042;-83
2021/10/08 04:55:43;;;;;;;21.55;13.57;;;;;;;10.15;nan;102528.41;4958803;28;20523;-84
2021/10/08 04:58:10;;;;;;;21.60;14.15;;;;;;;10.16;nan;102522.25;4957162;28;20419;-84
2021/10/08 05:00:37;;;;;;;24.15;15.82;;;;;;;10.19;nan;102525.84;4959055;28;20077;-82
2021/10/08 05:03:15;;;;;;;21.38;13.07;;;;;;;10.15;nan;102523.13;4957528;28;20049;-82
2021/10/08 05:05:47;;;;;;;21.42;13.63;;;;;;;10.15;nan;102520.50;4971083;28;20124;-82
2021/10/08 05:08:17;;;;;;;22.98;14.77;;;;;;;10.19;nan;102520.56;4973693;28;20451;-82
2021/10/08 05:10:44;;;;;;;22.65;14.55;;;;;;;10.18;nan;102522.31;4955004;28;20051;-82
2021/10/08 05:13:12;;;;;;;18.95;13.38;;;;;;;10.18;nan;102530.25;4924246;28;20038;-82
2021/10/08 05:15:38;;;;;;;22.58;13.38;;;;;;;10.19;nan;102526.72;4978139;28;20046;-83
2021/10/08 05:18:05;;;;;;;20.60;13.82;;;;;;;10.24;nan;102519.75;4976422;28;20450;-82
2021/10/08 05:20:32;;;;;;;21.52;14.45;;;;;;;10.21;nan;102530.25;4977224;28;20042;-82
2021/10/08 05:22:59;;;;;;;19.35;13.82;;;;;;;10.20;nan;102523.22;4960318;28;20088;-84
2021/10/08 05:25:27;;;;;;;22.23;13.38;;;;;;;10.24;nan;102532.06;4956020;28;20509;-82
2021/10/08 05:27:53;;;;;;;20.23;12.43;;;;;;;10.21;nan;102530.25;4937753;28;20054;-83
2021/10/08 05:30:20;;;;;;;21.05;13.43;;;;;;;10.24;nan;102534.72;4941928;28;20463;-84
2021/10/08 05:32:48;;;;;;;21.23;13.05;;;;;;;10.22;nan;102533.78;4975356;28;20132;-85
2021/10/08 05:35:17;;;;;;;20.48;12.43;;;;;;;10.24;nan;102534.72;4965860;28;20511;-84
2021/10/08 05:37:45;;;;;;;20.10;11.88;;;;;;;10.24;nan;102534.72;5042832;23;20097;-81
2021/10/08 05:40:12;;;;;;;24.83;14.57;;;;;;;10.29;nan;102546.22;4972882;28;20097;-81
2021/10/08 05:42:38;;;;;;;27.00;14.43;;;;;;;10.42;nan;102534.91;4971666;28;20054;-81
2021/10/08 05:45:05;;;;;;;21.80;13.93;;;;;;;10.40;nan;102536.66;4957173;28;20046;-82
2021/10/08 05:47:32;;;;;;;22.05;13.18;;;;;;;10.40;nan;102536.66;4955744;28;20105;-81
2021/10/08 05:49:59;;;;;;;21.90;14.35;;;;;;;10.39;nan;102542.81;4972040;28;20049;-83
2021/10/08 05:52:26;;;;;;;21.63;14.02;;;;;;;10.41;nan;102548.97;4939311;28;20096;-82
2021/10/08 05:54:53;;;;;;;24.08;16.13;;;;;;;10.48;nan;102549.94;4941261;28;20053;-81
2021/10/08 05:57:20;;;;;;;20.45;13.82;;;;;;;10.47;nan;102556.09;4938084;28;20046;-83
2021/10/08 05:59:46;;;;;;;25.88;15.68;;;;;;;10.50;nan;102561.41;4953456;28;20089;-82
2021/10/08 06:02:13;;;;;;;23.98;14.40;;;;;;;10.49;nan;102555.25;4961205;28;20081;-82
2021/10/08 06:04:40;;;;;;;22.42;14.20;;;;;;;10.47;nan;102564.03;4969441;28;20570;-82
2021/10/08 06:07:08;;;;;;;25.73;14.27;;;;;;;10.49;nan;102563.16;4948972;28;20042;-83
2021/10/08 06:09:35;;;;;;;23.45;14.25;;;;;;;10.50;nan;102561.41;4938695;28;20516;-82
2021/10/08 06:12:02;;;;;;;22.95;14.05;;;;;;;10.51;nan;102564.09;4955190;28;20178;-83
2021/10/08 06:14:29;;;;;;;21.35;14.30;;;;;;;10.54;nan;102572.03;4939517;28;20089;-82
2021/10/08 06:16:56;;;;;;;20.65;12.48;;;;;;;10.53;nan;102564.09;4958560;28;20677;-82
2021/10/08 06:19:23;;;;;;;24.33;14.20;;;;;;;10.57;nan;102568.53;4971573;28;20046;-82
2021/10/08 06:21:49;;;;;;;25.88;15.32;;;;;;;10.66;nan;102566.84;4940593;28;20153;-83
2021/10/08 06:24:16;;;;;;;23.38;13.68;;;;;;;10.66;nan;102558.94;4956429;28;20290;-82
2021/10/08 06:26:43;;;;;;;22.25;14.68;;;;;;;10.64;nan;102579.19;4970057;28;20100;-82
2021/10/08 06:29:10;;;;;;;24.33;15.65;;;;;;;10.75;nan;102583.69;4958173;28;20101;-82
2021/10/08 06:31:36;;;;;;;24.95;16.42;;;;;;;10.79;nan;102582.84;4971129;28;20586;-82
2021/10/08 06:34:03;;;;;;;25.20;15.40;;;;;;;10.74;nan;102587.19;4936322;28;20125;-82
2021/10/08 06:36:31;;;;;;;29.75;17.95;;;;;;;10.84;nan;102586.41;4936568;28;20586;-82
2021/10/08 06:38:58;;;;;;;30.35;16.77;;;;;;;10.86;nan;102589.97;4950005;28;20042;-82
2021/10/08 06:41:25;;;;;;;33.13;20.80;;;;;;;10.90;nan;102586.47;4956404;28;20627;-82
2021/10/08 06:43:52;;;;;;;35.10;19.95;;;;;;;10.94;nan;102594.47;4941335;28;20062;-83
2021/10/08 06:46:21;;;;;;;32.90;19.80;;;;;;;11.02;nan;102583.94;4941467;28;20047;-82
2021/10/08 06:48:47;;;;;;;35.10;19.20;;;;;;;11.03;nan;102596.31;4940675;28;20100;-82
2021/10/08 06:51:14;;;;;;;30.70;17.60;;;;;;;10.99;nan;102602.41;4975465;28;20046;-82
2021/10/08 06:53:41;;;;;;;32.33;18.50;;;;;;;10.95;nan;102611.22;4958610;28;20120;-82
2021/10/08 06:56:08;;;;;;;34.47;22.02;;;;;;;10.92;nan;102613.81;4952228;28;20534;-82
2021/10/08 06:58:34;;;;;;;33.85;21.63;;;;;;;11.16;nan;102606.09;4939078;28;20559;-83
2021/10/08 07:01:01;;;;;;;32.88;21.63;;;;;;;11.04;nan;102611.28;4953151;28;20128;-82
2021/10/08 07:03:28;;;;;;;32.95;20.92;;;;;;;11.03;nan;102620.09;4941800;28;20086;-82
2021/10/08 07:05:55;;;;;;;39.13;25.48;;;;;;;11.24;nan;102625.56;4959715;28;20145;-82
2021/10/08 07:08:22;;;;;;;31.10;21.65;;;;;;;11.23;nan;102626.44;4949910;28;20051;-83
2021/10/08 07:10:49;;;;;;;34.65;22.25;;;;;;;11.27;nan;102625.59;4940312;28;20057;-83
2021/10/08 07:13:15;;;;;;;34.60;20.95;;;;;;;11.36;nan;102623.91;4923034;28;20042;-82
2021/10/08 07:15:42;;;;;;;32.53;20.90;;;;;;;11.47;nan;102633.69;4960345;28;20189;-83
2021/10/08 07:18:14;;;;;;;36.42;22.55;;;;;;;11.65;nan;102627.63;4954521;28;20113;-83
2021/10/08 07:20:44;;;;;;;37.00;24.42;;;;;;;11.53;nan;102624.91;4941464;28;20108;-83
2021/10/08 07:23:11;;;;;;;31.20;21.95;;;;;;;11.55;nan;102626.69;4929331;28;20042;-82
2021/10/08 07:25:37;;;;;;;31.13;20.80;;;;;;;11.48;nan;102626.63;4958811;28;20435;-82
2021/10/08 07:28:04;;;;;;;33.33;22.35;;;;;;;11.60;nan;102629.34;4928319;28;20557;-83
2021/10/08 07:30:31;;;;;;;35.10;22.90;;;;;;;11.73;nan;102627.69;4929548;28;20621;-83
2021/10/08 07:32:57;;;;;;;33.03;22.90;;;;;;;11.78;nan;102623.31;4953350;28;20042;-83
2021/10/08 07:35:24;;;;;;;33.80;22.45;;;;;;;11.79;nan;102628.59;4924094;28;20050;-83
2021/10/08 07:37:51;;;;;;;32.95;21.73;;;;;;;11.84;nan;102624.25;4943177;28;20101;-81
2021/10/08 07:40:18;;;;;;;29.08;20.75;;;;;;;11.72;nan;102617.97;4955397;28;20053;-82
2021/10/08 07:42:45;;;;;;;29.38;20.17;;;;;;;11.74;nan;102621.50;4922828;28;20054;-83
2021/10/08 07:45:12;;;;;;;29.70;20.52;;;;;;;11.66;nan;102629.41;4974923;28;20065;-82
2021/10/08 07:47:39;;;;;;;34.05;21.38;;;;;;;11.70;nan;102627.69;4940641;28;20129;-82
2021/10/08 07:50:07;;;;;;;29.95;19.90;;;;;;;11.61;nan;102625.84;4955172;28;20385;-82
2021/10/08 07:52:34;;;;;;;27.40;19.00;;;;;;;11.50;nan;102622.22;4922817;28;20053;-83
2021/10/08 07:55:01;;;;;;;33.50;21.38;;;;;;;11.43;nan;102623.06;4955369;28;20657;-82
2021/10/08 07:57:30;;;;;;;34.15;21.60;;;;;;;11.33;nan;102629.16;4938011;28;20210;-83
2021/10/08 07:59:57;;;;;;;31.08;20.30;;;;;;;11.29;nan;102630.91;4938533;28;20043;-83
2021/10/08 08:02:24;;;;;;;29.85;20.65;;;;;;;11.21;nan;102628.19;4934675;28;20589;-82
2021/10/08 08:04:50;;;;;;;29.80;21.08;;;;;;;11.16;nan;102632.53;4923237;28;20065;-81
2021/10/08 08:07:17;;;;;;;29.00;18.98;;;;;;;11.05;nan;102634.22;4952505;28;20042;-83
2021/10/08 08:09:44;;;;;;;30.42;19.77;;;;;;;11.08;nan;102636.88;4947937;28;20042;-83
2021/10/08 08:12:10;;;;;;;30.65;20.75;;;;;;;11.04;nan;102636.84;4953229;28;20089;-83
2021/10/08 08:14:37;;;;;;;30.65;19.17;;;;;;;10.94;nan;102646.47;4954654;28;20039;-83
2021/10/08 08:17:04;;;;;;;30.77;20.20;;;;;;;10.89;nan;102648.16;4937784;28;20501;-83
2021/10/08 08:19:31;;;;;;;30.80;20.73;;;;;;;10.95;nan;102658.81;4938304;28;20623;-83
2021/10/08 08:21:57;;;;;;;30.27;19.75;;;;;;;10.93;nan;102657.88;4936914;28;20094;-83
2021/10/08 08:24:24;;;;;;;29.55;18.52;;;;;;;10.91;nan;102655.25;4922908;28;20047;-83
2021/10/08 08:26:51;;;;;;;32.33;22.33;;;;;;;10.91;nan;102655.25;4953599;28;20582;-86
2021/10/08 08:29:18;;;;;;;25.45;17.30;;;;;;;10.87;nan;102655.22;4923024;28;20636;-83
2021/10/08 08:31:45;;;;;;;24.05;17.15;;;;;;;10.83;nan;102662.19;4954190;28;20575;-84
2021/10/08 08:34:11;;;;;;;26.08;16.40;;;;;;;10.85;nan;102660.47;4922447;28;20039;-83
2021/10/08 08:36:38;;;;;;;28.13;18.25;;;;;;;10.88;nan;102665.78;4963649;28;20092;-84
2021/10/08 08:39:08;;;;;;;32.03;20.75;;;;;;;10.95;nan;102669.41;4955881;28;20504;-84
2021/10/08 08:41:36;;;;;;;32.65;22.20;;;;;;;11.15;nan;102667.81;4973754;28;20132;-84
2021/10/08 08:44:04;;;;;;;31.80;20.77;;;;;;;11.11;nan;102665.16;4955821;28;20042;-83
2021/10/08 08:46:32;;;;;;;33.03;20.75;;;;;;;11.17;nan;102658.13;4957787;28;20408;-85
2021/10/08 08:49:00;;;;;;;33.70;21.95;;;;;;;11.18;nan;102662.56;4971630;28;20053;-83
2021/10/08 08:51:27;;;;;;;29.25;19.70;;;;;;;11.09;nan;102673.03;4957583;28;20061;-84
2021/10/08 08:53:57;;;;;;;30.13;20.80;;;;;;;11.14;nan;102668.69;4939996;28;20457;-83
2021/10/08 08:56:24;;;;;;;30.75;20.15;;;;;;;11.10;nan;102663.34;4973417;28;20057;-83
2021/10/08 08:59:09;;;;;;;32.92;19.83;;;;;;;11.10;nan;102663.34;4987810;28;20176;-83
2021/10/08 09:02:03;;;;;;;29.58;19.48;;;;;;;11.11;nan;102655.44;4957823;28;20096;-83
2021/10/08 09:04:32;;;;;;;28.42;18.25;;;;;;;11.22;nan;102652.88;4941393;28;20097;-83
2021/10/08 09:06:59;;;;;;;33.05;20.77;;;;;;;11.28;nan;102658.25;4956202;28;20058;-83
2021/10/08 09:09:26;;;;;;;29.13;20.10;;;;;;;11.28;nan;102659.13;4973136;28;20420;-83
2021/10/08 09:11:55;;;;;;;30.35;19.83;;;;;;;11.19;nan;102656.41;4956324;28;20099;-84
2021/10/08 09:14:26;;;;;;;28.02;19.63;;;;;;;11.20;nan;102647.59;4941468;28;20043;-83
2021/10/08 09:17:15;;;;;;;32.97;20.70;;;;;;;11.15;nan;102645.75;4972175;28;20539;-84
2021/10/08 09:19:52;;;;;;;30.40;20.92;;;;;;;11.28;nan;102648.53;4972932;28;20049;-83
2021/10/08 09:22:50;;;;;;;32.85;19.90;;;;;;;11.62;nan;102642.63;4955580;28;20092;-82
2021/10/08 09:25:33;;;;;;;27.55;18.05;;;;;;;11.65;nan;102643.50;4957323;28;20423;-83
2021/10/08 09:28:05;;;;;;;31.35;20.13;;;;;;;11.92;nan;102639.28;4939998;28;20061;-83
2021/10/08 09:30:37;;;;;;;27.67;19.80;;;;;;;12.10;nan;102634.09;4940978;28;20756;-84
2021/10/08 09:33:06;;;;;;;31.73;20.50;;;;;;;12.36;nan;102640.41;4971010;28;20042;-83
2021/10/08 09:35:33;;;;;;;25.73;18.80;;;;;;;12.52;nan;102641.31;4941091;28;20450;-83
2021/10/08 09:38:11;;;;;;;26.55;18.63;;;;;;;12.83;nan;102636.09;4955094;28;20092;-83
2021/10/08 09:41:02;;;;;;;26.20;18.50;;;;;;;12.98;nan;102632.59;4957153;28;20515;-84
2021/10/08 09:43:30;;;;;;;24.23;18.00;;;;;;;13.06;nan;102633.47;4955787;28;20101;-83
2021/10/08 09:46:04;;;;;;;27.45;18.63;;;;;;;13.27;nan;102628.19;4941075;28;20069;-84
2021/10/08 09:48:31;;;;;;;28.25;17.85;;;;;;;13.47;nan;102626.44;4970889;28;20132;-83
2021/10/08 09:51:12;;;;;;;25.80;17.08;;;;;;;13.64;nan;102617.56;4972647;28;20492;-84
2021/10/08 09:53:48;;;;;;;29.13;18.83;;;;;;;14.01;nan;102620.97;4971700;28;20105;-84
2021/10/08 09:56:35;;;;;;;23.73;17.20;;;;;;;13.93;nan;102625.44;4974143;28;20121;-84
2021/10/08 09:59:06;;;;;;;24.48;17.55;;;;;;;14.18;nan;102619.16;4943359;28;20099;-82
2021/10/08 10:01:34;;;;;;;25.55;16.27;;;;;;;14.28;nan;102633.28;4945202;28;20054;-84
2021/10/08 10:04:03;;;;;;;24.67;15.80;;;;;;;14.55;nan;102624.34;4959471;28;20046;-85
2021/10/08 10:06:30;;;;;;;22.00;15.05;;;;;;;14.51;nan;102628.78;4957429;28;20042;-83
2021/10/08 10:08:57;;;;;;;21.40;15.52;;;;;;;14.60;nan;102617.19;4924138;28;20046;-85
2021/10/08 10:11:25;;;;;;;22.52;15.27;;;;;;;14.66;nan;102613.63;4941554;28;20045;-83
2021/10/08 10:13:59;;;;;;;23.02;16.40;;;;;;;14.70;nan;102612.69;4940196;28;20050;-83
2021/10/08 10:16:29;;;;;;;20.08;14.95;;;;;;;14.93;nan;102602.78;4941591;28;20070;-83
2021/10/08 10:18:58;;;;;;;23.65;15.05;;;;;;;14.95;nan;102600.97;4934738;28;20046;-82
2021/10/08 10:21:28;;;;;;;19.35;14.30;;;;;;;15.08;nan;102612.44;4944575;28;20050;-82
2021/10/08 10:23:58;;;;;;;21.55;15.73;;;;;;;15.11;nan;102607.97;4925301;28;20042;-83
2021/10/08 10:26:27;;;;;;;18.98;12.93;;;;;;;15.34;nan;102605.09;4931118;28;20043;-84
2021/10/08 10:28:55;;;;;;;18.83;12.82;;;;;;;15.45;nan;102608.53;4934865;28;20046;-82
2021/10/08 10:31:22;;;;;;;20.83;14.23;;;;;;;15.51;nan;102598.72;4943812;28;20058;-83
2021/10/08 10:33:49;;;;;;;24.63;14.63;;;;;;;15.27;nan;102603.38;4955734;28;20057;-81
2021/10/08 10:36:33;;;;;;;17.20;13.77;;;;;;;15.39;nan;102605.97;4948245;28;20070;-82
2021/10/08 10:39:10;;;;;;;21.15;12.90;;;;;;;15.55;nan;102603.13;4942984;28;20082;-81
2021/10/08 10:41:37;;;;;;;18.02;12.68;;;;;;;15.74;nan;102602.06;4956893;28;20093;-81
2021/10/08 10:44:12;;;;;;;16.75;11.20;;;;;;;16.02;nan;102594.63;4951893;28;20057;-82
2021/10/08 10:46:47;;;;;;;13.85;9.55;;;;;;;16.04;nan;102604.38;4952282;28;20456;-82
2021/10/08 10:49:39;;;;;;;16.42;9.32;;;;;;;16.22;nan;102603.25;4969775;28;20046;-81
2021/10/08 10:52:01;;;;;;;15.68;9.57;;;;;;;16.50;nan;102597.56;4986523;28;20105;-83
2021/10/08 10:54:51;;;;;;;18.02;9.88;;;;;;;15.91;nan;102600.09;4975070;28;20125;-83
2021/10/08 10:57:18;;;;;;;17.90;9.43;;;;;;;16.19;nan;102603.31;4941772;28;20055;-85
2021/10/08 10:59:48;;;;;;;17.55;10.65;;;;;;;16.27;nan;102595.19;4956860;28;20050;-83
2021/10/08 11:02:25;;;;;;;15.60;9.77;;;;;;;16.26;nan;102599.66;4955434;28;20259;-83
2021/10/08 11:05:20;;;;;;;15.65;8.65;;;;;;;16.26;nan;102593.44;4955501;28;20193;-82
2021/10/08 11:08:06;;;;;;;17.65;8.75;;;;;;;16.35;nan;102592.44;4940924;28;20042;-84
2021/10/08 11:10:35;;;;;;;16.58;8.25;;;;;;;16.52;nan;102591.28;4960320;28;20578;-81
2021/10/08 11:13:26;;;;;;;16.92;9.25;;;;;;;16.32;nan;102596.03;4965744;28;20127;-83
2021/10/08 11:16:03;;;;;;;14.32;8.85;;;;;;;16.49;nan;102587.78;4976712;28;20062;-83
2021/10/08 11:18:44;;;;;;;10.15;7.53;;;;;;;16.53;nan;102590.38;4956545;28;20136;-81
2021/10/08 11:21:34;;;;;;;16.77;8.23;;;;;;;16.69;nan;102593.75;4976855;28;20065;-81
2021/10/08 11:24:16;;;;;;;13.35;7.72;;;;;;;16.47;nan;102592.25;5046206;23;20446;-82
2021/10/08 11:26:56;;;;;;;18.15;11.05;;;;;;;16.67;nan;102583.97;4978887;28;20046;-82
2021/10/08 11:29:25;;;;;;;15.05;6.88;;;;;;;16.68;nan;102586.63;4963486;28;20448;-82
2021/10/08 11:32:09;;;;;;;12.65;10.05;;;;;;;16.89;nan;102585.41;4961716;28;20096;-81
2021/10/08 11:34:53;;;;;;;11.82;7.45;;;;;;;16.93;nan;102596.94;4954929;28;20098;-82
2021/10/08 11:37:20;;;;;;;15.05;8.15;;;;;;;16.71;nan;102589.25;4969384;28;20042;-82